Time;durP1;ratioP1;P1;durP2;ratioP2;P2;SDS_P1;SDS_P2;PMS_P1;PMS_P2;Temp;Humidity;BMP_temperature;BMP_pressure;BME280_temperature;BME280_humidity;BME280_pressure;Samples;Min_cycle;Max_cycle;Signal;HPM_P1;HPM_P2
2023/07/21 00:00:10;;;;;;;;;;;;;;;25.71;63.83;96719.64;582329;243;63868;-61
2023/07/21 00:02:31;;;;;;;;;;;;;;;25.72;64.38;96721.22;582148;242;49537;-60
2023/07/21 00:04:59;;;;;;;;;;;;;;;25.72;64.71;96720.43;582282;243;68689;-61
2023/07/21 00:07:26;;;;;;;;;;;;;;;25.72;64.80;96721.22;582277;243;65022;-60
2023/07/21 00:09:53;;;;;;;;;;;;;;;25.71;64.74;96719.64;582233;243;68862;-60
2023/07/21 00:12:21;;;;;;;;;;;;;;;25.72;64.66;96720.43;582335;243;68794;-63
2023/07/21 00:14:48;;;;;;;;;;;;;;;25.70;64.06;96718.06;582257;243;65105;-63
2023/07/21 00:17:16;;;;;;;;;;;;;;;25.71;63.74;96725.02;582262;243;68852;-63
2023/07/21 00:19:44;;;;;;;;;;;;;;;25.71;64.86;96733.10;582289;243;68330;-63
2023/07/21 00:22:12;;;;;;;;;;;;;;;25.71;63.37;96729.62;582276;243;65140;-63
2023/07/21 00:24:39;;;;;;;;;;;;;;;25.69;64.75;96722.63;582221;242;69031;-63
2023/07/21 00:27:07;;;;;;;;;;;;;;;25.69;64.42;96727.22;582330;243;68974;-63
2023/07/21 00:29:35;;;;;;;;;;;;;;;25.69;63.67;96725.32;582302;243;65061;-63
2023/07/21 00:32:05;;;;;;;;;;;;;;;25.69;63.33;96732.61;582289;243;68633;-63
2023/07/21 00:34:32;;;;;;;;;;;;;;;25.69;64.51;96727.22;582298;243;68693;-63
2023/07/21 00:37:00;;;;;;;;;;;;;;;25.69;64.52;96719.94;582269;243;62694;-63
2023/07/21 00:39:28;;;;;;;;;;;;;;;25.69;66.18;96721.84;582352;243;66687;-63
2023/07/21 00:41:55;;;;;;;;;;;;;;;25.69;64.31;96716.45;582296;243;68766;-63
2023/07/21 00:44:23;;;;;;;;;;;;;;;25.67;63.90;96711.41;582324;243;64892;-63
2023/07/21 00:46:51;;;;;;;;;;;;;;;25.66;63.14;96709.80;582294;243;66055;-60
2023/07/21 00:49:18;;;;;;;;;;;;;;;25.67;63.66;96707.89;582325;243;66358;-61
2023/07/21 00:51:46;;;;;;;;;;;;;;;25.66;64.97;96698.23;582302;243;62791;-60
2023/07/21 00:54:13;;;;;;;;;;;;;;;25.67;64.94;96702.51;582311;243;66918;-61
2023/07/21 00:56:43;;;;;;;;;;;;;;;25.66;63.86;96704.41;582281;243;66686;-61
2023/07/21 00:59:11;;;;;;;;;;;;;;;25.67;64.98;96705.20;582294;243;65280;-61
2023/07/21 01:01:39;;;;;;;;;;;;;;;25.66;62.66;96706.31;582310;243;68685;-61
2023/07/21 01:04:07;;;;;;;;;;;;;;;25.66;62.85;96700.94;582319;243;67026;-61
2023/07/21 01:06:37;;;;;;;;;;;;;;;25.66;63.66;96700.94;582305;243;62993;-61
2023/07/21 01:09:06;;;;;;;;;;;;;;;25.65;61.67;96705.52;582347;243;68643;-61
2023/07/21 01:11:35;;;;;;;;;;;;;;;25.64;62.99;96703.13;582302;242;68766;-61
2023/07/21 01:14:04;;;;;;;;;;;;;;;25.63;63.90;96702.34;582288;243;65051;-61
2023/07/21 01:16:34;;;;;;;;;;;;;;;25.62;63.75;96700.77;582252;243;66692;-61
2023/07/21 01:19:02;;;;;;;;;;;;;;;25.63;63.20;96704.24;582207;242;68990;-60
2023/07/21 01:21:36;;;;;;;;;;;;;;;25.63;63.71;96704.24;582293;243;62686;-61
2023/07/21 01:24:06;;;;;;;;;;;;;;;25.62;62.09;96702.66;582278;242;66687;-60
2023/07/21 01:26:35;;;;;;;;;;;;;;;25.62;63.39;96708.84;582002;242;66607;-60
2023/07/21 01:29:05;;;;;;;;;;;;;;;25.63;63.77;96705.03;582263;243;64926;-60
2023/07/21 01:31:35;;;;;;;;;;;;;;;25.62;63.54;96706.14;582343;243;68496;-61
2023/07/21 01:34:03;;;;;;;;;;;;;;;25.64;63.40;96713.89;582289;243;68562;-61
2023/07/21 01:36:31;;;;;;;;;;;;;;;25.63;63.93;96717.70;582290;240;62681;-63
2023/07/21 01:39:01;;;;;;;;;;;;;;;25.61;63.03;96725.28;582353;242;52406;-63
2023/07/21 01:41:29;;;;;;;;;;;;;;;25.61;63.57;96717.99;582227;243;69033;-61
2023/07/21 01:43:58;;;;;;;;;;;;;;;25.61;62.86;96714.52;582296;243;63745;-61
2023/07/21 01:46:26;;;;;;;;;;;;;;;25.61;62.42;96722.59;582316;243;68887;-61
2023/07/21 01:48:53;;;;;;;;;;;;;;;25.62;63.93;96721.50;582317;243;66683;-61
2023/07/21 01:51:22;;;;;;;;;;;;;;;25.61;61.37;96719.89;582278;243;65022;-61
2023/07/21 01:53:54;;;;;;;;;;;;;;;25.61;61.61;96733.35;582290;243;66606;-61
2023/07/21 01:56:23;;;;;;;;;;;;;;;25.61;63.24;96736.04;582119;242;68754;-61
2023/07/21 01:58:52;;;;;;;;;;;;;;;25.61;63.59;96727.97;582260;242;65095;-61
2023/07/21 02:01:20;;;;;;;;;;;;;;;25.60;62.92;96731.77;582267;243;68672;-61
2023/07/21 02:03:49;;;;;;;;;;;;;;;25.59;62.77;96732.86;582308;243;68677;-61
2023/07/21 02:06:17;;;;;;;;;;;;;;;25.59;62.42;96727.47;582280;243;64883;-61
2023/07/21 02:08:44;;;;;;;;;;;;;;;25.57;62.14;96719.73;582254;243;66791;-61
2023/07/21 02:11:12;;;;;;;;;;;;;;;25.59;63.58;96727.47;582330;243;68597;-63
2023/07/21 02:13:51;;;;;;;;;;;;;;;25.58;62.96;96728.59;582093;242;46200;-63
2023/07/21 02:16:20;;;;;;;;;;;;;;;25.57;61.67;96735.88;582260;243;69556;-63
2023/07/21 02:18:48;;;;;;;;;;;;;;;25.58;61.94;96752.80;582292;243;68658;-61
2023/07/21 02:21:15;;;;;;;;;;;;;;;25.57;62.14;96743.16;582243;243;62936;-61
2023/07/21 02:23:43;;;;;;;;;;;;;;;25.56;62.00;96750.41;582263;243;68662;-61
2023/07/21 02:26:10;;;;;;;;;;;;;;;25.56;62.43;96750.41;582312;243;68670;-63
2023/07/21 02:28:38;;;;;;;;;;;;;;;25.55;60.69;96754.21;582307;243;63935;-63
2023/07/21 02:31:06;;;;;;;;;;;;;;;25.57;63.08;96756.61;582253;243;69637;-63
2023/07/21 02:33:34;;;;;;;;;;;;;;;25.55;60.99;96764.19;583035;240;69277;-63
2023/07/21 02:36:03;;;;;;;;;;;;;;;25.56;62.61;96771.14;586084;241;66882;-63
2023/07/21 02:38:31;;;;;;;;;;;;;;;25.55;62.89;96769.56;588942;241;68817;-63
2023/07/21 02:41:03;;;;;;;;;;;;;;;25.54;60.56;96767.98;588934;241;66431;-63
2023/07/21 02:43:32;;;;;;;;;;;;;;;25.55;62.85;96780.33;588923;241;65186;-63
2023/07/21 02:46:00;;;;;;;;;;;;;;;25.54;63.31;96779.54;588914;241;68934;-62
2023/07/21 02:48:29;;;;;;;;;;;;;;;25.54;61.43;96770.68;588980;241;68017;-62
2023/07/21 02:50:58;;;;;;;;;;;;;;;25.53;60.58;96775.23;588897;240;65298;-63
2023/07/21 02:53:26;;;;;;;;;;;;;;;25.52;61.31;96773.66;589005;241;68524;-63
2023/07/21 02:55:55;;;;;;;;;;;;;;;25.52;61.37;96776.35;588958;240;45664;-64
2023/07/21 02:58:27;;;;;;;;;;;;;;;25.53;61.90;96785.22;588953;241;65094;-63
2023/07/21 03:00:54;;;;;;;;;;;;;;;25.53;62.47;96774.45;588683;241;68565;-63
2023/07/21 03:03:25;;;;;;;;;;;;;;;25.53;62.27;96772.55;588994;240;49904;-63
2023/07/21 03:05:53;;;;;;;;;;;;;;;25.52;62.67;96765.59;588977;241;65724;-63
2023/07/21 03:08:26;;;;;;;;;;;;;;;25.51;62.70;96769.39;588945;239;69178;-63
2023/07/21 03:10:50;;;;;;;;;;;;;;;25.51;62.80;96774.77;588827;240;69596;-63
2023/07/21 03:13:18;;;;;;;;;;;;;;;25.50;60.77;96780.45;588906;237;64961;-63
2023/07/21 03:15:46;;;;;;;;;;;;;;;25.51;62.26;96774.77;588930;241;69018;-63
2023/07/21 03:18:15;;;;;;;;;;;;;;;25.51;61.86;96779.34;588923;240;46450;-64
2023/07/21 03:21:00;;;;;;;;;;;;;;;25.51;61.34;96779.34;581835;241;44085;-64
2023/07/21 03:23:27;;;;;;;;;;;;;;;25.51;61.85;96779.34;586609;239;70417;-63
2023/07/21 03:25:55;;;;;;;;;;;;;;;25.51;62.38;96787.41;591328;240;67281;-62
2023/07/21 03:28:23;;;;;;;;;;;;;;;25.50;61.97;96788.52;591360;240;65627;-60
2023/07/21 03:30:57;;;;;;;;;;;;;;;25.49;60.23;96786.94;591380;240;66425;-60
2023/07/21 03:33:25;;;;;;;;;;;;;;;25.50;62.05;96788.52;591398;240;68767;-61
2023/07/21 03:36:03;;;;;;;;;;;;;;;25.48;60.90;96796.88;591096;240;42509;-61
2023/07/21 03:38:38;;;;;;;;;;;;;;;25.49;60.71;96795.02;591102;238;66693;-61
2023/07/21 03:41:07;;;;;;;;;;;;;;;25.49;60.85;96798.48;589467;237;68661;-61
2023/07/21 03:43:36;;;;;;;;;;;;;;;25.47;59.96;96784.54;589365;237;65726;-61
2023/07/21 03:46:05;;;;;;;;;;;;;;;25.48;60.44;96791.50;589559;237;66732;-61
2023/07/21 03:48:35;;;;;;;;;;;;;;;25.47;60.91;96788.02;589555;237;49828;-61
2023/07/21 03:51:05;;;;;;;;;;;;;;;25.46;61.19;96791.82;588778;238;63607;-61
2023/07/21 03:53:34;;;;;;;;;;;;;;;25.46;60.21;96794.52;589110;237;45618;-61
2023/07/21 03:56:02;;;;;;;;;;;;;;;25.46;61.13;96805.28;585785;241;67862;-61
2023/07/21 03:58:29;;;;;;;;;;;;;;;25.45;59.59;96806.39;588928;241;65747;-61
2023/07/21 04:00:59;;;;;;;;;;;;;;;25.47;61.58;96811.45;588962;241;66462;-61
2023/07/21 04:03:27;;;;;;;;;;;;;;;25.48;61.96;96802.27;588952;241;69125;-61
2023/07/21 04:05:54;;;;;;;;;;;;;;;25.46;61.43;96802.59;588925;241;65183;-61
2023/07/21 04:08:22;;;;;;;;;;;;;;;25.47;61.33;96814.14;588881;241;68727;-61
2023/07/21 04:10:50;;;;;;;;;;;;;;;25.45;60.71;96809.08;588907;241;68952;-61
2023/07/21 04:13:18;;;;;;;;;;;;;;;25.46;62.63;96807.17;588909;241;62819;-61
2023/07/21 04:15:47;;;;;;;;;;;;;;;25.45;62.23;96816.33;588939;241;66674;-61
2023/07/21 04:18:16;;;;;;;;;;;;;;;25.45;60.87;96811.77;588853;240;68626;-60
2023/07/21 04:20:43;;;;;;;;;;;;;;;25.46;62.27;96815.25;588904;241;65253;-61
2023/07/21 04:23:12;;;;;;;;;;;;;;;25.45;61.74;96816.33;587674;239;66188;-61
2023/07/21 04:25:40;;;;;;;;;;;;;;;25.45;62.10;96819.84;584930;242;68563;-61
2023/07/21 04:28:08;;;;;;;;;;;;;;;25.46;62.34;96818.73;584968;242;62520;-61
2023/07/21 04:30:37;;;;;;;;;;;;;;;25.46;61.82;96815.25;584935;242;69044;-60
2023/07/21 04:33:05;;;;;;;;;;;;;;;25.46;63.60;96817.94;584916;242;66191;-61
2023/07/21 04:35:33;;;;;;;;;;;;;;;25.45;62.18;96821.70;584912;242;65683;-61
2023/07/21 04:38:02;;;;;;;;;;;;;;;25.45;62.91;96819.84;584919;241;47536;-61
2023/07/21 04:40:31;;;;;;;;;;;;;;;25.45;63.11;96819.84;584812;241;48003;-61
2023/07/21 04:42:59;;;;;;;;;;;;;;;25.46;62.94;96821.42;584917;242;65802;-61
2023/07/21 04:45:26;;;;;;;;;;;;;;;25.45;63.29;96819.84;584937;242;68994;-61
2023/07/21 04:47:56;;;;;;;;;;;;;;;25.45;63.26;96817.15;584822;241;47334;-61
2023/07/21 04:50:24;;;;;;;;;;;;;;;25.45;62.83;96829.78;584943;242;65454;-61
2023/07/21 04:52:52;;;;;;;;;;;;;;;25.45;63.96;96825.22;584947;242;67361;-61
2023/07/21 04:55:19;;;;;;;;;;;;;;;25.46;63.50;96823.31;584949;242;66169;-61
2023/07/21 04:57:48;;;;;;;;;;;;;;;25.47;65.00;96827.59;584919;242;65688;-61
2023/07/21 05:00:16;;;;;;;;;;;;;;;25.45;63.54;96811.77;584879;242;68838;-61
2023/07/21 05:02:43;;;;;;;;;;;;;;;25.46;63.75;96817.94;584898;242;68697;-61
2023/07/21 05:05:11;;;;;;;;;;;;;;;25.45;64.12;96827.91;584909;242;64914;-61
2023/07/21 05:07:40;;;;;;;;;;;;;;;25.45;63.79;96825.22;584745;239;47449;-61
2023/07/21 05:10:08;;;;;;;;;;;;;;;25.44;63.68;96823.61;584889;242;69128;-61
2023/07/21 05:12:35;;;;;;;;;;;;;;;25.45;63.83;96819.02;584868;240;65050;-61
2023/07/21 05:15:08;;;;;;;;;;;;;;;25.45;64.71;96822.53;584818;241;46869;-61
2023/07/21 05:17:37;;;;;;;;;;;;;;;25.44;62.87;96820.92;582641;240;47095;-61
2023/07/21 05:20:11;;;;;;;;;;;;;;;25.44;63.87;96820.92;582631;239;42485;-61
2023/07/21 05:22:40;;;;;;;;;;;;;;;25.43;63.58;96824.72;582470;240;47624;-61
2023/07/21 05:25:19;;;;;;;;;;;;;;;25.43;62.88;96822.03;584051;239;48755;-60
2023/07/21 05:27:50;;;;;;;;;;;;;;;25.43;62.74;96827.41;588858;239;65074;-60
2023/07/21 05:30:18;;;;;;;;;;;;;;;25.42;62.28;96825.02;588858;239;69380;-60
2023/07/21 05:32:48;;;;;;;;;;;;;;;25.41;62.12;96832.30;588637;239;50788;-60
2023/07/21 05:35:18;;;;;;;;;;;;;;;25.42;64.26;96825.80;588855;239;43879;-60
2023/07/21 05:37:47;;;;;;;;;;;;;;;25.41;64.32;96824.22;588870;240;47039;-61
2023/07/21 05:40:14;;;;;;;;;;;;;;;25.40;63.75;96821.82;588577;239;68721;-60
2023/07/21 05:42:42;;;;;;;;;;;;;;;25.38;62.95;96822.14;588855;240;65061;-61
2023/07/21 05:45:11;;;;;;;;;;;;;;;25.38;64.06;96822.14;588761;239;69021;-60
2023/07/21 05:47:40;;;;;;;;;;;;;;;25.38;63.10;96824.83;588963;240;68817;-61
2023/07/21 05:50:08;;;;;;;;;;;;;;;25.38;62.93;96818.66;588910;239;64981;-60
2023/07/21 05:52:37;;;;;;;;;;;;;;;25.38;63.39;96822.14;588727;240;46253;-61
2023/07/21 05:55:06;;;;;;;;;;;;;;;25.41;63.50;96826.12;588934;239;69046;-61
2023/07/21 05:57:34;;;;;;;;;;;;;;;25.40;64.08;96824.52;588625;239;64977;-61
2023/07/21 06:00:04;;;;;;;;;;;;;;;25.41;64.69;96831.50;588904;239;66608;-61
2023/07/21 06:02:33;;;;;;;;;;;;;;;25.40;64.87;96830.71;588256;239;48649;-60
2023/07/21 06:05:01;;;;;;;;;;;;;;;25.40;65.28;96832.58;588683;240;65141;-61
2023/07/21 06:07:30;;;;;;;;;;;;;;;25.39;64.03;96831.80;588522;240;49800;-60
2023/07/21 06:10:06;;;;;;;;;;;;;;;25.38;63.44;96830.21;588893;239;49628;-60
2023/07/21 06:12:39;;;;;;;;;;;;;;;25.37;62.45;96830.50;588799;239;42495;-60
2023/07/21 06:15:11;;;;;;;;;;;;;;;25.37;61.67;96823.25;588685;239;48457;-60
2023/07/21 06:17:56;;;;;;;;;;;;;;;25.40;63.34;96832.58;588967;240;47141;-60
2023/07/21 06:20:25;;;;;;;;;;;;;;;25.40;63.84;96832.58;588869;239;65727;-61
2023/07/21 06:22:54;;;;;;;;;;;;;;;25.39;63.18;96831.00;589134;239;49840;-61
2023/07/21 06:25:23;;;;;;;;;;;;;;;25.39;63.36;96831.00;591762;239;68667;-61
2023/07/21 06:27:52;;;;;;;;;;;;;;;25.41;64.46;96826.91;591702;239;43653;-61
2023/07/21 06:30:21;;;;;;;;;;;;;;;25.41;65.12;96828.81;591906;239;69277;-61
2023/07/21 06:32:50;;;;;;;;;;;;;;;25.41;65.15;96818.05;592395;239;45679;-61
2023/07/21 06:35:31;;;;;;;;;;;;;;;25.41;64.79;96823.43;588905;238;43712;-62
2023/07/21 06:38:03;;;;;;;;;;;;;;;25.41;64.71;96816.16;588412;241;49927;-62
2023/07/21 06:40:33;;;;;;;;;;;;;;;25.41;65.35;96812.67;583089;241;49787;-61
2023/07/21 06:43:03;;;;;;;;;;;;;;;25.40;65.48;96814.58;583120;241;45078;-61
2023/07/21 06:45:41;;;;;;;;;;;;;;;25.41;66.64;96813.46;588716;240;45852;-61
2023/07/21 06:48:16;;;;;;;;;;;;;;;25.40;64.96;96811.88;588882;240;45641;-62
2023/07/21 06:50:56;;;;;;;;;;;;;;;25.42;60.67;96809.66;588867;241;43918;-61
2023/07/21 06:53:24;;;;;;;;;;;;;;;25.45;64.18;96798.31;588284;241;68817;-62
2023/07/21 06:55:54;;;;;;;;;;;;;;;25.49;68.08;96805.77;588870;241;68386;-62
2023/07/21 06:58:22;;;;;;;;;;;;;;;25.46;65.61;96799.11;580418;241;63406;-61
2023/07/21 07:00:52;;;;;;;;;;;;;;;25.45;61.53;96803.70;576259;246;69125;-61
2023/07/21 07:03:20;;;;;;;;;;;;;;;25.49;60.71;96803.08;576198;246;69332;-60
2023/07/21 07:05:49;;;;;;;;;;;;;;;25.51;60.71;96806.23;576288;246;64874;-63
2023/07/21 07:08:17;;;;;;;;;;;;;;;25.54;60.76;96813.73;576273;246;66469;-63
2023/07/21 07:10:48;;;;;;;;;;;;;;;25.55;59.90;96812.62;576268;246;66170;-62
2023/07/21 07:13:15;;;;;;;;;;;;;;;25.55;60.67;96802.64;576274;243;65409;-62
2023/07/21 07:15:44;;;;;;;;;;;;;;;25.57;59.70;96799.66;576347;246;68768;-63
2023/07/21 07:18:13;;;;;;;;;;;;;;;25.58;60.29;96793.95;576036;245;63103;-62
2023/07/21 07:20:40;;;;;;;;;;;;;;;25.58;60.11;96791.27;576324;246;65059;-65
2023/07/21 07:23:10;;;;;;;;;;;;;;;25.60;60.49;96790.97;574551;244;68815;-64
2023/07/21 07:25:37;;;;;;;;;;;;;;;25.62;58.92;96799.55;570684;246;68678;-65
2023/07/21 07:28:04;;;;;;;;;;;;;;;25.63;58.63;96793.05;569882;246;63244;-65
2023/07/21 07:30:33;;;;;;;;;;;;;;;25.65;58.38;96790.85;570058;246;66747;-66
2023/07/21 07:33:01;;;;;;;;;;;;;;;25.65;58.87;96788.16;570109;246;66641;-66
2023/07/21 07:35:28;;;;;;;;;;;;;;;25.66;58.37;96782.45;570094;245;62920;-65
2023/07/21 07:37:56;;;;;;;;;;;;;;;25.68;58.01;96782.16;569707;246;66654;-65
2023/07/21 07:40:24;;;;;;;;;;;;;;;25.68;58.19;96779.47;570134;246;66704;-66
2023/07/21 07:42:51;;;;;;;;;;;;;;;25.69;58.57;96776.45;569919;245;65089;-64
2023/07/21 07:45:19;;;;;;;;;;;;;;;25.70;58.30;96774.58;570484;246;68846;-65
2023/07/21 07:47:46;;;;;;;;;;;;;;;25.70;57.30;96777.28;569689;249;66363;-66
2023/07/21 07:50:15;;;;;;;;;;;;;;;25.68;57.03;96774.88;569833;246;61956;-65
2023/07/21 07:52:43;;;;;;;;;;;;;;;25.70;57.35;96777.28;569979;245;68846;-66
2023/07/21 07:55:10;;;;;;;;;;;;;;;25.73;57.88;96773.97;570094;244;66942;-65
2023/07/21 07:57:39;;;;;;;;;;;;;;;25.74;58.28;96780.92;570090;245;65122;-65
2023/07/21 08:00:08;;;;;;;;;;;;;;;25.75;57.98;96777.13;569888;246;67557;-66
2023/07/21 08:02:37;;;;;;;;;;;;;;;25.76;57.91;96786.80;570287;246;46117;-65
2023/07/21 08:05:05;;;;;;;;;;;;;;;25.78;57.61;96794.55;569698;246;65096;-64
2023/07/21 08:07:32;;;;;;;;;;;;;;;25.79;57.23;96790.78;573376;246;69079;-65
2023/07/21 08:10:02;;;;;;;;;;;;;;;25.78;57.34;96795.38;569943;245;68567;-65
2023/07/21 08:12:29;;;;;;;;;;;;;;;25.79;57.46;96788.09;569980;245;65089;-65
2023/07/21 08:14:58;;;;;;;;;;;;;;;25.77;57.32;96783.00;569956;246;68599;-65
2023/07/21 08:17:26;;;;;;;;;;;;;;;25.78;57.71;96789.99;569920;246;68891;-64
2023/07/21 08:19:53;;;;;;;;;;;;;;;25.81;58.07;96793.94;570173;246;65097;-65
2023/07/21 08:22:21;;;;;;;;;;;;;;;25.81;57.72;96794.76;569624;249;69050;-66
2023/07/21 08:24:48;;;;;;;;;;;;;;;25.81;57.66;96792.06;569997;246;66480;-66
2023/07/21 08:27:16;;;;;;;;;;;;;;;25.81;58.12;96794.76;569822;246;62948;-65
2023/07/21 08:29:43;;;;;;;;;;;;;;;25.81;58.06;96794.76;569897;246;68817;-66
2023/07/21 08:32:11;;;;;;;;;;;;;;;25.83;57.95;96791.73;570419;246;66371;-65
2023/07/21 08:34:39;;;;;;;;;;;;;;;25.84;58.30;96796.07;569903;247;65070;-65
2023/07/21 08:37:07;;;;;;;;;;;;;;;25.85;58.41;96794.95;570033;244;68701;-66
2023/07/21 08:39:34;;;;;;;;;;;;;;;25.84;58.45;96794.17;569906;246;68579;-66
2023/07/21 08:42:03;;;;;;;;;;;;;;;25.86;58.28;96791.97;569855;246;65091;-65
2023/07/21 08:44:32;;;;;;;;;;;;;;;25.84;58.24;96799.55;570224;245;68884;-65
2023/07/21 08:46:59;;;;;;;;;;;;;;;25.85;58.31;96795.75;569795;246;68800;-65
2023/07/21 08:49:27;;;;;;;;;;;;;;;25.88;58.53;96797.03;570597;246;62875;-65
2023/07/21 08:51:55;;;;;;;;;;;;;;;25.88;58.45;96797.81;570550;245;68800;-65
2023/07/21 08:54:22;;;;;;;;;;;;;;;25.89;58.68;96790.53;569649;246;68720;-65
2023/07/21 08:56:50;;;;;;;;;;;;;;;25.91;58.55;96799.10;570189;246;65059;-65
2023/07/21 08:59:18;;;;;;;;;;;;;;;25.92;58.37;96800.71;570302;245;66622;-65
2023/07/21 09:01:47;;;;;;;;;;;;;;;25.91;58.31;96799.89;569829;246;66393;-65
2023/07/21 09:04:19;;;;;;;;;;;;;;;25.95;58.55;96799.30;570433;244;63729;-64
2023/07/21 09:06:51;;;;;;;;;;;;;;;25.94;58.32;96803.08;570062;246;68821;-64
2023/07/21 09:09:20;;;;;;;;;;;;;;;25.97;58.25;96797.07;569820;245;69018;-66
2023/07/21 09:11:48;;;;;;;;;;;;;;;26.00;58.24;96796.45;570069;246;62945;-66
2023/07/21 09:14:16;;;;;;;;;;;;;;;25.99;58.39;96795.66;569696;246;66171;-65
2023/07/21 09:16:44;;;;;;;;;;;;;;;25.98;58.31;96793.30;569892;246;68727;-65
2023/07/21 09:19:14;;;;;;;;;;;;;;;25.98;57.75;96791.39;570068;247;65126;-65
2023/07/21 09:21:41;;;;;;;;;;;;;;;25.99;57.74;96790.28;570014;246;68808;-66
2023/07/21 09:24:09;;;;;;;;;;;;;;;26.00;57.58;96789.19;575095;245;68791;-65
2023/07/21 09:26:36;;;;;;;;;;;;;;;26.00;57.50;96785.68;576095;246;65051;-65
2023/07/21 09:29:05;;;;;;;;;;;;;;;26.00;57.65;96786.50;576164;245;68506;-65
2023/07/21 09:31:33;;;;;;;;;;;;;;;26.01;57.73;96787.29;575728;246;66725;-65
2023/07/21 09:34:03;;;;;;;;;;;;;;;26.00;57.92;96785.68;576052;246;65230;-65
2023/07/21 09:36:30;;;;;;;;;;;;;;;26.01;57.91;96784.59;573695;246;69083;-65
2023/07/21 09:38:59;;;;;;;;;;;;;;;26.01;57.78;96781.91;573808;246;68750;-66
2023/07/21 09:41:27;;;;;;;;;;;;;;;26.01;57.89;96781.91;576127;245;62985;-66
2023/07/21 09:43:55;;;;;;;;;;;;;;;26.03;57.91;96779.70;576105;245;68789;-65
2023/07/21 09:46:23;;;;;;;;;;;;;;;26.04;57.92;96784.77;576135;245;68745;-65
2023/07/21 09:48:51;;;;;;;;;;;;;;;26.04;57.64;96783.98;576159;245;65460;-65
2023/07/21 09:51:19;;;;;;;;;;;;;;;26.04;57.71;96782.07;576435;243;69034;-65
2023/07/21 09:53:46;;;;;;;;;;;;;;;26.04;57.52;96776.69;582407;242;66508;-65
2023/07/21 09:56:16;;;;;;;;;;;;;;;26.07;57.39;96772.58;582513;243;65070;-65
2023/07/21 09:58:45;;;;;;;;;;;;;;;26.06;57.31;96774.48;582491;243;68751;-65
2023/07/21 10:01:13;;;;;;;;;;;;;;;26.07;57.54;96769.89;582122;243;68731;-65
2023/07/21 10:03:41;;;;;;;;;;;;;;;26.08;57.57;96771.47;582529;243;62930;-65
2023/07/21 10:06:09;;;;;;;;;;;;;;;26.09;57.80;96767.69;582558;243;68749;-66
2023/07/21 10:08:37;;;;;;;;;;;;;;;26.09;57.44;96762.30;582568;243;68828;-65
2023/07/21 10:11:12;;;;;;;;;;;;;;;26.09;57.57;96767.69;582574;243;64737;-65
2023/07/21 10:13:37;;;;;;;;;;;;;;;26.07;57.65;96764.50;582394;242;66614;-65
2023/07/21 10:16:09;;;;;;;;;;;;;;;26.04;57.55;96755.14;582464;242;66493;-65
2023/07/21 10:18:37;;;;;;;;;;;;;;;26.03;57.69;96758.16;582586;243;65228;-65
2023/07/21 10:21:05;;;;;;;;;;;;;;;26.04;57.75;96759.73;582489;243;68759;-65
2023/07/21 10:23:37;;;;;;;;;;;;;;;26.07;57.51;96767.98;582550;242;67086;-64
2023/07/21 10:26:05;;;;;;;;;;;;;;;26.09;57.09;96773.08;582519;243;63047;-64
2023/07/21 10:28:46;;;;;;;;;;;;;;;26.10;57.02;96769.27;582500;243;68700;-65
2023/07/21 10:31:15;;;;;;;;;;;;;;;26.11;56.79;96762.80;582495;243;68829;-64
2023/07/21 10:33:44;;;;;;;;;;;;;;;26.11;56.74;96757.41;580971;242;62870;-64
2023/07/21 10:36:15;;;;;;;;;;;;;;;26.13;56.49;96765.95;582089;242;68834;-65
2023/07/21 10:38:43;;;;;;;;;;;;;;;26.12;56.38;96761.67;582509;243;68829;-65
2023/07/21 10:41:10;;;;;;;;;;;;;;;26.12;56.20;96762.47;582483;243;63031;-65
2023/07/21 10:43:38;;;;;;;;;;;;;;;26.13;56.51;96755.97;582555;243;68474;-66
2023/07/21 10:46:06;;;;;;;;;;;;;;;26.14;56.59;96746.02;582552;243;68862;-65
2023/07/21 10:48:33;;;;;;;;;;;;;;;26.16;56.47;96742.98;582492;243;65059;-66
2023/07/21 10:51:01;;;;;;;;;;;;;;;26.18;56.40;96744.27;582533;243;69044;-65
2023/07/21 10:53:28;;;;;;;;;;;;;;;26.20;56.39;96743.97;582478;243;68830;-66
2023/07/21 10:55:58;;;;;;;;;;;;;;;26.19;56.36;96743.18;582444;243;63043;-65
2023/07/21 10:58:27;;;;;;;;;;;;;;;26.20;56.37;96733.98;582537;240;66615;-65
2023/07/21 11:00:55;;;;;;;;;;;;;;;26.21;56.23;96735.56;582567;243;68573;-66
2023/07/21 11:03:22;;;;;;;;;;;;;;;26.22;56.33;96731.78;582504;243;62988;-66
2023/07/21 11:05:50;;;;;;;;;;;;;;;26.22;56.24;96729.09;582582;243;68381;-66
2023/07/21 11:08:27;;;;;;;;;;;;;;;26.23;56.12;96733.36;581411;243;68513;-66
2023/07/21 11:10:54;;;;;;;;;;;;;;;26.25;56.50;96731.16;582530;243;64998;-66
2023/07/21 11:13:22;;;;;;;;;;;;;;;26.27;56.64;96736.22;582547;243;68468;-66
2023/07/21 11:15:54;;;;;;;;;;;;;;;26.28;56.67;96738.61;582573;243;68519;-65
2023/07/21 11:18:23;;;;;;;;;;;;;;;26.29;56.76;96734.01;582441;242;63840;-66
2023/07/21 11:20:51;;;;;;;;;;;;;;;26.29;56.79;96726.72;582518;243;66350;-65
2023/07/21 11:23:22;;;;;;;;;;;;;;;26.30;56.60;96725.63;580265;242;68447;-66
2023/07/21 11:26:00;;;;;;;;;;;;;;;26.31;56.45;96721.03;576557;243;63820;-64
2023/07/21 11:28:29;;;;;;;;;;;;;;;26.30;56.42;96720.23;577866;243;69357;-65
2023/07/21 11:30:57;;;;;;;;;;;;;;;26.31;56.41;96707.56;577909;244;68407;-66
2023/07/21 11:33:24;;;;;;;;;;;;;;;26.32;56.45;96715.31;578012;244;63027;-65
2023/07/21 11:35:52;;;;;;;;;;;;;;;26.32;56.56;96717.22;577913;244;66638;-64
2023/07/21 11:38:20;;;;;;;;;;;;;;;26.31;56.78;96712.95;576134;244;69067;-64
2023/07/21 11:40:48;;;;;;;;;;;;;;;26.31;56.69;96710.25;574410;244;65122;-65
2023/07/21 11:43:15;;;;;;;;;;;;;;;26.32;56.79;96715.31;574253;246;68859;-65
2023/07/21 11:45:43;;;;;;;;;;;;;;;26.34;56.62;96707.72;574016;246;68624;-65
2023/07/21 11:48:14;;;;;;;;;;;;;;;26.32;56.58;96707.23;574231;245;65101;-65
2023/07/21 11:50:52;;;;;;;;;;;;;;;26.29;56.74;96702.47;574345;245;68930;-65
2023/07/21 11:53:24;;;;;;;;;;;;;;;26.27;56.93;96710.09;574267;246;68822;-64
2023/07/21 11:55:52;;;;;;;;;;;;;;;26.28;56.61;96698.20;574384;246;65070;-65
2023/07/21 11:58:21;;;;;;;;;;;;;;;26.31;56.50;96696.78;574039;246;68645;-65
2023/07/21 12:00:49;;;;;;;;;;;;;;;26.34;56.37;96701.54;574252;246;68731;-66
2023/07/21 12:03:17;;;;;;;;;;;;;;;26.34;56.35;96691.55;574354;246;65097;-66
2023/07/21 12:05:45;;;;;;;;;;;;;;;26.35;56.16;96695.03;574351;246;69088;-67
2023/07/21 12:08:12;;;;;;;;;;;;;;;26.36;56.11;96693.95;574254;246;66608;-67
2023/07/21 12:10:40;;;;;;;;;;;;;;;26.37;56.18;96697.43;574042;246;63854;-67
2023/07/21 12:13:07;;;;;;;;;;;;;;;26.39;56.16;96692.53;573333;243;68803;-68
2023/07/21 12:15:35;;;;;;;;;;;;;;;26.39;56.07;96695.22;573596;243;69791;-67
2023/07/21 12:18:03;;;;;;;;;;;;;;;26.38;56.05;96691.71;573927;243;65224;-68
2023/07/21 12:20:30;;;;;;;;;;;;;;;26.39;56.08;96685.23;574395;246;66393;-67
2023/07/21 12:22:58;;;;;;;;;;;;;;;26.37;56.14;96684.75;574454;246;66455;-67
2023/07/21 12:25:25;;;;;;;;;;;;;;;26.38;56.13;96686.32;577095;243;65073;-68
2023/07/21 12:27:53;;;;;;;;;;;;;;;26.39;56.06;96689.83;581423;243;68549;-67
2023/07/21 12:30:20;;;;;;;;;;;;;;;26.40;55.83;96686.02;578070;243;68603;-69
2023/07/21 12:32:48;;;;;;;;;;;;;;;26.41;56.00;96682.21;581249;243;63006;-65
2023/07/21 12:35:15;;;;;;;;;;;;;;;26.40;56.17;96692.20;581471;243;68580;-65
2023/07/21 12:37:43;;;;;;;;;;;;;;;26.40;56.23;96692.20;581546;243;68595;-59
2023/07/21 12:40:15;;;;;;;;;;;;;;;26.40;56.29;96684.12;581502;243;65088;-59
2023/07/21 12:42:42;;;;;;;;;;;;;;;26.36;56.38;96685.87;581515;243;68577;-60
2023/07/21 12:45:10;;;;;;;;;;;;;;;26.34;56.48;96688.07;581676;243;67974;-60
2023/07/21 12:47:38;;;;;;;;;;;;;;;26.32;56.50;96676.81;581695;243;64932;-60
2023/07/21 12:50:06;;;;;;;;;;;;;;;26.30;56.63;96687.91;581518;243;68652;-59
2023/07/21 12:52:33;;;;;;;;;;;;;;;26.29;56.68;96683.61;581526;243;69441;-67
2023/07/21 12:55:02;;;;;;;;;;;;;;;26.29;56.77;96675.53;581573;243;65240;-67